createdAt,value
2022-12-18T00:07:45.992Z,88968.63
2022-12-18T00:16:12.639Z,88963.89
2022-12-18T00:24:36.791Z,88949.27
2022-12-18T00:33:00.299Z,88949.52
2022-12-18T00:41:43.113Z,88937.42
2022-12-18T00:50:06.650Z,88950.98
2022-12-18T00:58:29.573Z,88950.23
2022-12-18T01:06:52.615Z,88968.57
2022-12-18T01:15:16.385Z,88991.16
2022-12-18T01:23:40.254Z,88986.05
2022-12-18T01:32:03.533Z,88989.42
2022-12-18T01:40:26.566Z,89002.63
2022-12-18T01:48:54.932Z,88998.21
2022-12-18T01:57:18.047Z,89012.63
2022-12-18T02:05:50.230Z,89038.08
2022-12-18T02:14:50.918Z,89044.14
2022-12-18T02:23:32.831Z,89067.72
2022-12-18T02:32:05.625Z,89066.95
2022-12-18T02:40:30.771Z,89063.42
2022-12-18T02:49:07.316Z,89082.00
2022-12-18T02:57:42.914Z,89083.73
2022-12-18T03:06:11.376Z,89107.36
2022-12-18T03:14:35.345Z,89120.88
2022-12-18T03:23:06.301Z,89132.33
2022-12-18T03:31:32.273Z,89139.65
2022-12-18T03:40:00.887Z,89159.98
2022-12-18T03:48:37.560Z,89194.03
2022-12-18T03:57:23.187Z,89211.33
2022-12-18T04:05:51.414Z,89238.00
2022-12-18T04:14:18.357Z,89249.29
2022-12-18T04:22:43.917Z,89237.59
2022-12-18T04:31:08.177Z,89252.08
2022-12-18T04:39:31.809Z,89286.56
2022-12-18T04:48:00.471Z,89292.45
2022-12-18T04:56:23.389Z,89290.20
2022-12-18T05:04:46.446Z,89289.84
2022-12-18T05:13:09.407Z,89271.80
2022-12-18T05:21:32.364Z,89265.32
2022-12-18T05:29:55.206Z,89283.70
2022-12-18T05:38:18.111Z,89287.64
2022-12-18T05:46:40.947Z,89284.33
2022-12-18T05:55:04.035Z,89313.86
2022-12-18T06:03:32.180Z,89317.68
2022-12-18T06:11:56.794Z,89301.85
2022-12-18T06:20:20.208Z,89304.23
2022-12-18T06:28:43.308Z,89308.38
2022-12-18T06:37:06.174Z,89293.05
2022-12-18T06:45:29.141Z,89295.20
2022-12-18T06:53:54.519Z,89288.83
2022-12-18T07:02:17.473Z,89277.73
2022-12-18T07:10:47.475Z,89269.09
2022-12-18T07:19:11.230Z,89270.84
2022-12-18T07:27:34.164Z,89283.61
2022-12-18T07:35:57.207Z,89283.60
2022-12-18T07:44:20.080Z,89259.95
2022-12-18T07:52:43.096Z,89262.41
2022-12-18T08:01:08.723Z,89296.38
2022-12-18T08:09:31.647Z,89311.29
2022-12-18T08:17:58.186Z,89348.54
2022-12-18T08:26:22.409Z,89393.24
2022-12-18T08:34:45.348Z,89420.25
2022-12-18T08:43:30.537Z,89441.63
2022-12-18T08:51:58.266Z,89436.91
2022-12-18T09:00:21.428Z,89427.40
2022-12-18T09:08:48.032Z,89416.10
2022-12-18T09:17:11.039Z,89479.46
2022-12-18T09:25:36.864Z,89521.63
2022-12-18T09:33:59.892Z,89549.35
2022-12-18T09:42:23.326Z,89553.82
2022-12-18T09:50:47.546Z,89535.44
2022-12-18T09:59:22.265Z,89562.57
2022-12-18T10:07:58.705Z,89556.31
2022-12-18T10:16:24.877Z,89579.77
2022-12-18T10:24:56.954Z,89613.45
2022-12-18T10:33:24.344Z,89632.40
2022-12-18T10:41:47.368Z,89670.45
2022-12-18T10:59:22.696Z,89764.51
2022-12-18T11:07:51.768Z,89813.25
2022-12-18T11:16:21.014Z,89845.28
2022-12-18T11:34:30.632Z,89838.16
2022-12-18T11:43:14.707Z,89820.17
2022-12-18T11:52:09.877Z,89824.27
2022-12-18T12:00:36.141Z,89837.03
2022-12-18T12:09:11.385Z,89821.35
2022-12-18T12:17:43.431Z,89827.91
2022-12-18T12:26:16.610Z,89837.76
2022-12-18T12:34:45.584Z,89818.68
2022-12-18T12:43:23.930Z,89802.13
2022-12-18T12:51:52.305Z,89778.89
2022-12-18T13:00:20.369Z,89778.55
2022-12-18T13:09:00.455Z,89771.22
2022-12-18T13:17:30.410Z,89716.08
2022-12-18T13:26:11.165Z,89687.25
2022-12-18T13:34:36.007Z,89654.05
2022-12-18T13:43:14.721Z,89657.73
2022-12-18T13:51:51.509Z,89652.35
2022-12-18T14:00:25.460Z,89636.80
2022-12-18T14:08:48.898Z,89609.80
2022-12-18T14:17:12.986Z,89554.08
2022-12-18T14:25:36.045Z,89510.78
2022-12-18T14:33:59.078Z,89482.33
2022-12-18T14:42:22.174Z,89462.54
2022-12-18T14:50:46.106Z,89442.80
2022-12-18T14:59:24.249Z,89412.48
2022-12-18T15:07:51.327Z,89366.77
2022-12-18T15:16:14.405Z,89356.39
2022-12-18T15:24:37.438Z,89368.57
2022-12-18T15:33:27.049Z,89357.67
2022-12-18T15:42:09.515Z,89339.84
2022-12-18T15:50:32.483Z,89321.05
2022-12-18T15:58:55.340Z,89327.64
2022-12-18T16:07:24.633Z,89342.54
2022-12-18T16:15:48.757Z,89310.01
2022-12-18T16:24:20.475Z,89255.98
2022-12-18T16:32:43.643Z,89269.04
2022-12-18T16:41:33.175Z,89289.79
2022-12-18T16:49:56.139Z,89257.71
2022-12-18T16:58:19.004Z,89224.61
2022-12-18T17:06:45.271Z,89196.48
2022-12-18T17:15:09.158Z,89163.70
2022-12-18T17:23:32.292Z,89167.27
2022-12-18T17:31:55.423Z,89191.23
2022-12-18T17:40:20.104Z,89151.55
2022-12-18T17:48:42.966Z,89150.99
2022-12-18T17:57:05.914Z,89147.73
2022-12-18T18:05:29.007Z,89118.79
2022-12-18T18:14:01.549Z,89089.70
2022-12-18T18:22:24.506Z,89096.74
2022-12-18T18:30:48.239Z,89086.94
2022-12-18T18:39:12.771Z,89063.68
2022-12-18T18:47:35.705Z,89062.61
2022-12-18T18:56:37.482Z,89060.98
2022-12-18T19:04:46.223Z,89047.77
2022-12-18T19:13:22.182Z,89047.48
2022-12-18T19:21:45.272Z,89057.71
2022-12-18T19:30:08.920Z,89037.47
2022-12-18T19:38:32.289Z,89022.05
2022-12-18T19:46:55.995Z,89028.69
2022-12-18T19:55:18.928Z,88988.35
2022-12-18T20:03:42.353Z,88933.40
2022-12-18T20:12:07.230Z,88903.54
2022-12-18T20:20:30.114Z,88901.23
2022-12-18T20:28:55.028Z,88856.77
2022-12-18T20:37:18.033Z,88849.64
2022-12-18T20:45:43.215Z,88859.56
2022-12-18T20:54:11.623Z,88850.48
2022-12-18T21:02:35.432Z,88833.80
2022-12-18T21:11:36.260Z,88834.50
2022-12-18T21:19:59.899Z,88791.67
2022-12-18T21:28:23.157Z,88763.62
2022-12-18T21:36:47.127Z,88714.66
2022-12-18T21:45:12.413Z,88643.67
2022-12-18T21:53:36.399Z,88582.27
2022-12-18T22:02:06.330Z,88573.32
2022-12-18T22:10:29.250Z,88594.98
2022-12-18T22:18:52.114Z,88586.20
2022-12-18T22:27:15.057Z,88614.58
2022-12-18T22:35:37.980Z,88648.41
2022-12-18T22:44:01.676Z,88650.28
2022-12-18T22:52:25.537Z,88657.95
2022-12-18T23:00:48.922Z,88661.78
2022-12-18T23:09:39.255Z,88643.06
2022-12-18T23:18:02.091Z,88660.98
2022-12-18T23:26:26.169Z,88673.58
2022-12-18T23:34:49.029Z,88672.87
2022-12-18T23:43:11.898Z,88693.73
2022-12-18T23:51:34.740Z,88678.16
2022-12-18T23:59:59.022Z,88693.27
